Orbital elements of SL-6 R/B(2)
| Launched | 30 March 1981 |
| Flight ended | – |
| Launch site | Plesetsk Missile and Space Complex, Russia |
| Owner | Commonwealth of Independent States (former USSR) |
| NORAD ID | 12384 |
| Date fetched |
Epoch osculation |
Inc. [°] |
Ecc. | RA asc node [hr] |
Arg Peri. [°] |
Mean anom [°] |
Mean motion [rev/day] |
Abs. mag |
| Date fetched |
Epoch osculation |
Inc. [°] |
Ecc. | RA asc node [hr] |
Arg Peri. [°] |
Mean anom [°] |
Mean motion [rev/day] |
Abs. mag |
| 2026 May 05 17:57 | 2026 May 05 07:02:22 | 67.8712 | 0.61277 | 4.8412 | 359.9536 | 359.8682 | 2.03542 | – |
| 2026 May 04 17:57 | 2026 Apr 29 21:20:06 | 67.8627 | 0.61302 | 4.8659 | 0.0839 | 359.8682 | 2.03542 | – |
| 2026 May 03 17:57 | 2026 Apr 29 21:20:06 | 67.8627 | 0.61302 | 4.8659 | 0.0839 | 359.8682 | 2.03542 | – |
| 2026 May 02 17:57 | 2026 Apr 29 21:20:06 | 67.8627 | 0.61302 | 4.8659 | 0.0839 | 359.8682 | 2.03542 | – |
| 2026 May 01 17:56 | 2026 Apr 29 21:20:06 | 67.8627 | 0.61302 | 4.8659 | 0.0839 | 359.8682 | 2.03542 | – |
| 2026 Apr 30 17:56 | 2026 Apr 29 21:20:06 | 67.8627 | 0.61302 | 4.8659 | 0.0839 | 359.8682 | 2.03542 | – |
| 2026 Apr 29 17:57 | 2026 Apr 23 12:03:07 | 67.8530 | 0.61333 | 4.8952 | 0.2374 | 359.8682 | 2.03542 | – |
| 2026 Apr 28 17:56 | 2026 Apr 23 12:03:07 | 67.8530 | 0.61333 | 4.8952 | 0.2374 | 359.8682 | 2.03542 | – |
| 2026 Apr 27 17:58 | 2026 Apr 23 12:03:07 | 67.8530 | 0.61333 | 4.8952 | 0.2374 | 359.8682 | 2.03542 | – |
| 2026 Apr 26 17:58 | 2026 Apr 23 12:03:07 | 67.8530 | 0.61333 | 4.8952 | 0.2374 | 359.8682 | 2.03542 | – |
| 2026 Apr 25 17:58 | 2026 Apr 23 12:03:07 | 67.8530 | 0.61333 | 4.8952 | 0.2374 | 359.8682 | 2.03542 | – |
| 2026 Apr 24 17:59 | 2026 Apr 23 12:03:07 | 67.8530 | 0.61333 | 4.8952 | 0.2374 | 359.8682 | 2.03542 | – |
| 2026 Apr 23 17:57 | 2026 Apr 19 01:55:38 | 67.8439 | 0.61355 | 4.9154 | 0.3390 | 359.8682 | 2.03542 | – |
| 2026 Apr 22 17:57 | 2026 Apr 19 01:55:38 | 67.8439 | 0.61355 | 4.9154 | 0.3390 | 359.8682 | 2.03542 | – |
| 2026 Apr 21 17:57 | 2026 Apr 19 01:55:38 | 67.8439 | 0.61355 | 4.9154 | 0.3390 | 359.8682 | 2.03542 | – |
| 2026 Apr 20 17:57 | 2026 Apr 19 01:55:38 | 67.8439 | 0.61355 | 4.9154 | 0.3390 | 359.8682 | 2.03542 | – |
| 2026 Apr 19 17:58 | 2026 Apr 19 01:55:38 | 67.8439 | 0.61355 | 4.9154 | 0.3390 | 359.8682 | 2.03542 | – |
| 2026 Apr 18 17:56 | 2026 Apr 12 16:38:07 | 67.8298 | 0.61386 | 4.9447 | 0.4855 | 359.8682 | 2.03542 | – |
| 2026 Apr 16 17:57 | 2026 Apr 12 16:38:07 | 67.8298 | 0.61386 | 4.9447 | 0.4855 | 359.8682 | 2.03542 | – |
| 2026 Apr 14 17:57 | 2026 Apr 12 16:38:07 | 67.8298 | 0.61386 | 4.9447 | 0.4855 | 359.8682 | 2.03542 | – |
| 2026 Apr 13 17:57 | 2026 Apr 12 16:38:07 | 67.8298 | 0.61386 | 4.9447 | 0.4855 | 359.8682 | 2.03542 | – |
| 2026 Apr 12 17:57 | 2026 Apr 08 06:30:30 | 67.8234 | 0.61407 | 4.9651 | 0.5859 | 359.8682 | 2.03542 | – |
| 2026 Apr 11 17:57 | 2026 Apr 08 06:30:30 | 67.8234 | 0.61407 | 4.9651 | 0.5859 | 359.8682 | 2.03542 | – |
| 2026 Apr 10 17:58 | 2026 Apr 08 06:30:30 | 67.8234 | 0.61407 | 4.9651 | 0.5859 | 359.8682 | 2.03542 | – |
| 2026 Apr 09 18:01 | 2026 Apr 08 06:30:30 | 67.8234 | 0.61407 | 4.9651 | 0.5859 | 359.8682 | 2.03542 | – |
| 2026 Apr 08 17:57 | 2026 Apr 08 06:30:30 | 67.8234 | 0.61407 | 4.9651 | 0.5859 | 359.8682 | 2.03542 | – |